createdAt,value
2022-08-05T00:00:53.682Z,97862.00
2022-08-05T00:03:20.335Z,97880.78
2022-08-05T00:06:06.507Z,97838.25
2022-08-05T00:08:36.241Z,97855.97
2022-08-05T00:11:07.510Z,97848.28
2022-08-05T00:13:48.091Z,97856.94
2022-08-05T00:16:35.673Z,97868.19
2022-08-05T00:19:04.333Z,97849.16
2022-08-05T00:21:31.018Z,97847.50
2022-08-05T00:24:09.979Z,97931.06
2022-08-05T00:26:38.739Z,97938.69
2022-08-05T00:29:05.429Z,97897.00
2022-08-05T00:31:41.361Z,97901.88
2022-08-05T00:34:55.704Z,97951.16
2022-08-05T00:37:20.097Z,97927.81
2022-08-05T00:39:58.669Z,97892.56
2022-08-05T00:42:33.972Z,97881.13
2022-08-05T00:45:01.945Z,97876.91
2022-08-05T00:47:31.614Z,97878.53
2022-08-05T00:50:15.580Z,97915.25
2022-08-05T00:52:42.159Z,97872.94
2022-08-05T00:55:12.293Z,97876.59
2022-08-05T00:57:58.118Z,97864.44
2022-08-05T01:00:27.371Z,97897.41
2022-08-05T01:02:54.199Z,97932.53
2022-08-05T01:05:21.950Z,97861.50
2022-08-05T01:08:41.179Z,97875.22
2022-08-05T01:10:51.654Z,97870.91
2022-08-05T01:13:58.525Z,97933.44
2022-08-05T01:16:37.849Z,97864.22
2022-08-05T01:19:46.215Z,97926.97
2022-08-05T01:22:32.223Z,97863.50
2022-08-05T01:25:40.704Z,97929.72
2022-08-05T01:28:30.481Z,97925.69
2022-08-05T01:31:04.610Z,97883.94
2022-08-05T01:33:39.701Z,97936.22
2022-08-05T01:36:16.147Z,97913.16
2022-08-05T01:38:45.623Z,97939.50
2022-08-05T01:41:18.086Z,97887.00
2022-08-05T01:43:49.843Z,97944.16
2022-08-05T01:46:42.777Z,97895.66
2022-08-05T01:49:23.352Z,97933.13
2022-08-05T01:51:56.052Z,97960.47
2022-08-05T01:54:27.300Z,97844.84
2022-08-05T01:58:09.567Z,97956.16
2022-08-05T01:59:47.579Z,97935.06
2022-08-05T02:02:16.587Z,97887.06
2022-08-05T02:04:49.663Z,97950.22
2022-08-05T02:07:21.928Z,97936.78
2022-08-05T02:09:50.351Z,97887.44
2022-08-05T02:12:32.958Z,97896.75
2022-08-05T02:15:07.903Z,97925.38
2022-08-05T02:18:31.053Z,97898.03
2022-08-05T02:20:44.031Z,97903.66
2022-08-05T02:23:14.913Z,97927.63
2022-08-05T02:25:50.121Z,97920.22
2022-08-05T02:28:28.816Z,97987.59
2022-08-05T02:31:14.370Z,98003.78
2022-08-05T02:33:48.409Z,98022.72
2022-08-05T02:36:19.046Z,98037.28
2022-08-05T02:38:52.957Z,98070.59
2022-08-05T02:41:22.755Z,98110.91
2022-08-05T02:44:02.786Z,98130.81
2022-08-05T02:46:53.149Z,98117.84
2022-08-05T02:49:27.221Z,98095.50
2022-08-05T02:52:04.963Z,98170.47
2022-08-05T02:54:35.617Z,98154.03
2022-08-05T02:57:10.069Z,98111.53
2022-08-05T02:59:55.395Z,98119.94
2022-08-05T03:02:28.896Z,98095.63
2022-08-05T03:04:57.859Z,98109.63
2022-08-05T03:07:59.449Z,98098.94
2022-08-05T03:10:15.812Z,98142.06
2022-08-05T03:12:48.826Z,98101.16
2022-08-05T03:15:20.287Z,98124.56
2022-08-05T03:17:46.926Z,98186.69
2022-08-05T03:20:13.849Z,98104.44
2022-08-05T03:22:46.780Z,98117.91
2022-08-05T03:25:32.530Z,98113.59
2022-08-05T03:28:03.582Z,98125.69
2022-08-05T03:30:34.097Z,98152.88
2022-08-05T03:33:02.906Z,98109.84
2022-08-05T03:35:30.775Z,98143.19
2022-08-05T03:38:00.618Z,98060.38
2022-08-05T03:40:31.939Z,98087.19
2022-08-05T03:43:01.675Z,98077.31
2022-08-05T03:45:58.170Z,98054.06
2022-08-05T03:48:29.678Z,97925.50
2022-08-05T03:52:38.943Z,97980.03
2022-08-05T03:55:52.579Z,97954.75
2022-08-05T03:57:16.424Z,97889.16
2022-08-05T04:00:11.474Z,97878.31
2022-08-05T04:02:57.928Z,97850.78
2022-08-05T04:05:37.459Z,97899.56
2022-08-05T04:08:14.722Z,97904.22
2022-08-05T04:10:57.743Z,97853.47
2022-08-05T04:13:25.895Z,97882.00
2022-08-05T04:16:14.383Z,97880.84
2022-08-05T04:18:41.299Z,97875.56
2022-08-05T04:21:10.898Z,97945.16
2022-08-05T04:24:06.068Z,97897.06
2022-08-05T04:26:25.855Z,97947.84
2022-08-05T04:28:59.822Z,97923.69
2022-08-05T04:31:27.700Z,97877.19
2022-08-05T04:34:31.644Z,97914.81
2022-08-05T04:36:52.364Z,97940.03
2022-08-05T04:39:19.968Z,97958.28
2022-08-05T04:41:48.325Z,97945.44
2022-08-05T04:44:16.231Z,98008.53
2022-08-05T04:46:51.158Z,98010.91
2022-08-05T04:49:19.407Z,98011.41
2022-08-05T04:52:05.105Z,98047.97
2022-08-05T04:54:34.344Z,98068.84
2022-08-05T04:57:00.995Z,97997.84
2022-08-05T04:59:40.486Z,98138.91
2022-08-05T05:02:36.083Z,98093.72
2022-08-05T05:05:02.805Z,98066.66
2022-08-05T05:07:45.767Z,98041.38
2022-08-05T05:10:19.781Z,98055.38
2022-08-05T05:12:46.340Z,98049.00
2022-08-05T05:15:17.602Z,98057.91
2022-08-05T05:18:04.318Z,98051.13
2022-08-05T05:20:32.115Z,98123.78
2022-08-05T05:23:08.227Z,98082.38
2022-08-05T05:25:46.357Z,98138.28
2022-08-05T05:28:14.571Z,98034.44
2022-08-05T05:30:42.409Z,98114.91
2022-08-05T05:33:16.850Z,98110.31
2022-08-05T05:35:45.855Z,98098.53
2022-08-05T05:38:14.307Z,98112.75
2022-08-05T05:40:49.989Z,98166.00
2022-08-05T05:43:27.629Z,98159.25
2022-08-05T05:46:12.216Z,98180.22
2022-08-05T05:48:43.923Z,98138.81
2022-08-05T05:51:15.203Z,98145.19
2022-08-05T05:53:54.102Z,98119.06
2022-08-05T05:56:31.943Z,98120.69
2022-08-05T05:59:04.089Z,98137.56
2022-08-05T06:01:39.405Z,98118.97
2022-08-05T06:04:12.658Z,98145.72
2022-08-05T06:06:47.564Z,98119.88
2022-08-05T06:09:17.322Z,98118.38
2022-08-05T06:11:59.527Z,98062.34
2022-08-05T06:14:28.862Z,98065.03
2022-08-05T06:16:56.837Z,98109.25
2022-08-05T06:19:33.915Z,98078.88
2022-08-05T06:22:06.497Z,98004.09
2022-08-05T06:24:35.329Z,98031.56
2022-08-05T06:27:04.032Z,98049.00
2022-08-05T06:29:49.257Z,98061.41
2022-08-05T06:32:24.944Z,98093.44
2022-08-05T06:34:56.673Z,98018.38
2022-08-05T06:37:56.339Z,98003.31
2022-08-05T06:40:12.651Z,98050.06
2022-08-05T06:42:40.751Z,98048.69
2022-08-05T06:45:09.205Z,98076.09
2022-08-05T06:48:36.810Z,98080.13
2022-08-05T06:50:24.202Z,98139.03
2022-08-05T06:52:58.462Z,98060.72
2022-08-05T06:55:30.424Z,98107.06
2022-08-05T06:58:20.066Z,98126.69
2022-08-05T07:00:50.991Z,98113.53
2022-08-05T07:03:17.839Z,98135.28
2022-08-05T07:05:46.374Z,98103.50
2022-08-05T07:08:13.499Z,98088.69
2022-08-05T07:10:52.350Z,98098.94
2022-08-05T07:13:56.728Z,98134.47
2022-08-05T07:16:08.656Z,98072.34
2022-08-05T07:18:38.797Z,98088.25
2022-08-05T07:21:14.688Z,98126.69
2022-08-05T07:23:52.605Z,98116.75
2022-08-05T07:26:22.696Z,98128.03
2022-08-05T07:28:51.757Z,98138.78
2022-08-05T07:31:20.143Z,98110.00
2022-08-05T07:34:08.379Z,98142.34
2022-08-05T07:36:35.023Z,98085.09
2022-08-05T07:39:07.202Z,98131.91
2022-08-05T07:42:14.748Z,98063.88
2022-08-05T07:44:38.111Z,98007.72
2022-08-05T07:47:07.894Z,98013.09
2022-08-05T07:49:43.650Z,98052.25
2022-08-05T07:52:21.853Z,98030.56
2022-08-05T07:54:51.038Z,98025.97
2022-08-05T07:57:52.216Z,97994.25
2022-08-05T08:00:11.561Z,98115.63
2022-08-05T08:03:14.822Z,98098.88
2022-08-05T08:05:28.115Z,98068.59
2022-08-05T08:07:59.784Z,98075.63
2022-08-05T08:10:27.658Z,98064.03
2022-08-05T08:12:54.332Z,98109.13
2022-08-05T08:15:37.292Z,98079.56
2022-08-05T08:18:14.397Z,98050.72
2022-08-05T08:21:00.613Z,98112.47
2022-08-05T08:24:02.125Z,98055.06
2022-08-05T08:26:14.755Z,98044.09
2022-08-05T08:28:59.023Z,98042.47
2022-08-05T08:31:28.087Z,98058.50
2022-08-05T08:33:59.659Z,98041.66
2022-08-05T08:36:37.535Z,98086.84
2022-08-05T08:39:15.547Z,98006.38
2022-08-05T08:41:52.115Z,98067.88
2022-08-05T08:45:22.447Z,98154.00
2022-08-05T08:48:07.620Z,98156.81
2022-08-05T08:50:30.580Z,98015.44
2022-08-05T08:53:07.955Z,98171.44
2022-08-05T08:56:04.459Z,98086.13
2022-08-05T08:58:37.547Z,98083.31
2022-08-05T09:01:16.400Z,98095.91
2022-08-05T09:03:46.393Z,98076.31
2022-08-05T09:06:18.474Z,98082.09
2022-08-05T09:08:46.807Z,98146.38
2022-08-05T09:11:14.127Z,98112.63
2022-08-05T09:14:10.132Z,98151.91
2022-08-05T09:16:29.097Z,98067.72
2022-08-05T09:18:56.100Z,98099.53
2022-08-05T09:22:23.368Z,98141.94
2022-08-05T09:24:12.950Z,98134.78
2022-08-05T09:26:44.851Z,98128.06
2022-08-05T09:29:11.427Z,98108.94
2022-08-05T09:32:41.723Z,98157.31
2022-08-05T09:34:52.010Z,97843.50
2022-08-05T09:38:12.415Z,98074.28
2022-08-05T09:40:07.587Z,98094.50
2022-08-05T09:42:43.533Z,98075.72
2022-08-05T09:46:04.586Z,98027.75
2022-08-05T09:48:19.100Z,98092.94
2022-08-05T09:51:14.976Z,98119.06
2022-08-05T09:53:54.380Z,98151.31
2022-08-05T09:56:31.865Z,98035.66
2022-08-05T09:59:01.067Z,98148.19
2022-08-05T10:01:33.010Z,98146.81
2022-08-05T10:04:04.454Z,98142.06
2022-08-05T10:06:39.601Z,98066.75
2022-08-05T10:09:25.167Z,98151.44
2022-08-05T10:12:18.848Z,98133.28
2022-08-05T10:15:16.916Z,98066.22
2022-08-05T10:17:54.447Z,98008.03
2022-08-05T10:20:24.073Z,98085.00
2022-08-05T10:22:52.658Z,98005.78
2022-08-05T10:25:20.163Z,98116.06
2022-08-05T10:28:13.551Z,98060.59
2022-08-05T10:31:20.448Z,97882.84
2022-08-05T10:33:24.783Z,97846.16
2022-08-05T10:35:59.185Z,98112.91
2022-08-05T10:38:33.241Z,97853.22
2022-08-05T10:41:28.141Z,98149.00
2022-08-05T10:44:18.279Z,97820.78
2022-08-05T10:46:53.993Z,98116.72
2022-08-05T10:49:26.951Z,97745.34
2022-08-05T10:51:59.728Z,98146.66
2022-08-05T10:54:56.431Z,98068.50
2022-08-05T10:57:29.544Z,98138.19
2022-08-05T11:00:20.884Z,98092.22
2022-08-05T11:03:25.377Z,98092.50
2022-08-05T11:06:23.126Z,98140.34
2022-08-05T11:09:46.141Z,98141.88
2022-08-05T11:12:37.274Z,98136.38
2022-08-05T11:15:20.202Z,98146.84
2022-08-05T11:17:59.953Z,98141.56
2022-08-05T11:20:43.704Z,98100.56
2022-08-05T11:23:33.239Z,98142.19
2022-08-05T11:26:29.267Z,98147.78
2022-08-05T11:29:11.513Z,98156.84
2022-08-05T11:31:57.453Z,98037.47
2022-08-05T11:34:39.302Z,98158.78
2022-08-05T11:38:30.692Z,98124.97
2022-08-05T11:40:00.626Z,98173.75
2022-08-05T11:42:40.346Z,98173.69
2022-08-05T11:45:14.200Z,98175.66
2022-08-05T11:47:50.544Z,97841.47
2022-08-05T11:50:21.863Z,98134.25
2022-08-05T11:52:51.121Z,98142.47
2022-08-05T11:55:19.938Z,98114.88
2022-08-05T11:58:08.697Z,98148.97
2022-08-05T12:00:38.381Z,98138.06
2022-08-05T12:03:28.726Z,98083.22
2022-08-05T12:06:06.083Z,98085.00
2022-08-05T12:08:50.945Z,98045.22
2022-08-05T12:11:22.898Z,98162.75
2022-08-05T12:14:05.991Z,98174.75
2022-08-05T12:16:38.505Z,98184.66
2022-08-05T12:19:10.109Z,98178.00
2022-08-05T12:21:56.790Z,98151.47
2022-08-05T12:24:24.633Z,98131.13
2022-08-05T12:26:53.217Z,98122.75
2022-08-05T12:29:23.408Z,98116.22
2022-08-05T12:31:58.252Z,98181.47
2022-08-05T12:34:32.376Z,98185.94
2022-08-05T12:37:03.583Z,97843.66
2022-08-05T12:39:37.153Z,98176.28
2022-08-05T12:42:14.999Z,97889.75
2022-08-05T12:44:43.848Z,98138.94
2022-08-05T12:47:12.898Z,98127.09
2022-08-05T12:50:03.113Z,98102.91
2022-08-05T12:52:39.506Z,98159.91
2022-08-05T12:55:22.061Z,98163.88
2022-08-05T12:58:49.557Z,98216.94
2022-08-05T13:02:01.517Z,98183.00
2022-08-05T13:03:41.354Z,98186.13
2022-08-05T13:06:17.062Z,98132.69
2022-08-05T13:08:50.735Z,98089.84
2022-08-05T13:11:47.058Z,98161.91
2022-08-05T13:14:19.453Z,98213.13
2022-08-05T13:16:56.650Z,98132.78
2022-08-05T13:19:25.525Z,98209.50
2022-08-05T13:21:56.777Z,97912.56
2022-08-05T13:24:27.671Z,98162.75
2022-08-05T13:27:10.901Z,98192.41
2022-08-05T13:29:38.080Z,98166.91
2022-08-05T13:32:05.662Z,98137.69
2022-08-05T13:34:32.801Z,98162.03
2022-08-05T13:36:59.490Z,98152.06
2022-08-05T13:40:14.188Z,98128.06
2022-08-05T13:42:14.258Z,98156.25
2022-08-05T13:44:45.359Z,98153.94
2022-08-05T13:47:34.606Z,98240.31
2022-08-05T13:50:04.617Z,98114.13
2022-08-05T13:52:35.164Z,98157.25
2022-08-05T13:55:01.988Z,98206.09
2022-08-05T13:57:50.592Z,98242.50
2022-08-05T14:00:26.882Z,98248.66
2022-08-05T14:02:56.728Z,98213.97
2022-08-05T14:05:48.074Z,98203.56
2022-08-05T14:08:20.262Z,98293.00
2022-08-05T14:10:48.571Z,98276.09
2022-08-05T14:13:16.053Z,98272.28
2022-08-05T14:16:08.273Z,98319.16
2022-08-05T14:18:29.535Z,98242.19
2022-08-05T14:20:56.059Z,98279.34
2022-08-05T14:23:25.913Z,98286.31
2022-08-05T14:25:54.620Z,98276.09
2022-08-05T14:28:29.282Z,98296.19
2022-08-05T14:30:57.280Z,98325.00
2022-08-05T14:33:24.281Z,98319.78
2022-08-05T14:35:53.990Z,98303.38
2022-08-05T14:38:32.557Z,98336.38
2022-08-05T14:41:05.571Z,98343.75
2022-08-05T14:43:51.616Z,98342.28
2022-08-05T14:46:49.377Z,98309.34
2022-08-05T14:49:16.108Z,98370.69
2022-08-05T14:51:43.216Z,98353.13
2022-08-05T14:54:29.923Z,98365.31
2022-08-05T14:56:59.607Z,98368.88
2022-08-05T14:59:29.438Z,98345.50
2022-08-05T15:02:02.456Z,98391.94
2022-08-05T15:04:29.549Z,98395.72
2022-08-05T15:06:56.562Z,98277.78
2022-08-05T15:09:51.448Z,98378.72
2022-08-05T15:12:16.504Z,98415.13
2022-08-05T15:14:49.525Z,98438.91
2022-08-05T15:17:46.321Z,98415.56
2022-08-05T15:20:06.324Z,98419.03
2022-08-05T15:22:36.946Z,98388.22
2022-08-05T15:25:13.654Z,98394.72
2022-08-05T15:27:43.050Z,98478.09
2022-08-05T15:30:19.298Z,98422.44
2022-08-05T15:32:46.569Z,98424.75
2022-08-05T15:35:13.422Z,98445.22
2022-08-05T15:38:34.810Z,98418.28
2022-08-05T15:41:02.714Z,98445.78
2022-08-05T15:43:20.581Z,98439.31
2022-08-05T15:46:00.510Z,98408.44
2022-08-05T15:48:28.466Z,98407.09
2022-08-05T15:50:55.227Z,98471.28
2022-08-05T15:53:23.286Z,98459.94
2022-08-05T15:56:03.766Z,98501.34
2022-08-05T15:58:35.478Z,98502.22
2022-08-05T16:01:16.939Z,98479.00
2022-08-05T16:03:45.442Z,98450.94
2022-08-05T16:06:15.520Z,98498.75
2022-08-05T16:08:47.687Z,98474.81
2022-08-05T16:11:17.308Z,98484.13
2022-08-05T16:13:44.215Z,98519.31
2022-08-05T16:16:11.203Z,98515.13
2022-08-05T16:18:51.848Z,98425.84
2022-08-05T16:21:20.805Z,98501.22
2022-08-05T16:24:40.547Z,98445.25
2022-08-05T16:27:00.545Z,98530.06
2022-08-05T16:29:28.862Z,98503.25
2022-08-05T16:31:58.324Z,98527.16
2022-08-05T16:34:26.565Z,98533.19
2022-08-05T16:36:54.009Z,98491.91
2022-08-05T16:39:20.995Z,98478.47
2022-08-05T16:42:13.971Z,98535.38
2022-08-05T16:44:34.640Z,98527.16
2022-08-05T16:47:04.426Z,98472.44
2022-08-05T16:49:31.017Z,98501.75
2022-08-05T16:51:57.630Z,98501.44
2022-08-05T16:54:31.857Z,98530.53
2022-08-05T16:57:00.166Z,98496.97
2022-08-05T16:59:30.755Z,98523.41
2022-08-05T17:01:57.911Z,98477.38
2022-08-05T17:04:29.156Z,98502.69
2022-08-05T17:07:00.485Z,98456.91
2022-08-05T17:09:29.408Z,98494.03
2022-08-05T17:11:59.631Z,98507.25
2022-08-05T17:14:37.137Z,98525.03
2022-08-05T17:17:06.527Z,98556.94
2022-08-05T17:19:36.130Z,98494.44
2022-08-05T17:22:03.782Z,98516.16
2022-08-05T17:24:38.663Z,98527.22
2022-08-05T17:27:10.247Z,98528.25
2022-08-05T17:29:41.101Z,98519.25
2022-08-05T17:32:17.311Z,98579.44
2022-08-05T17:34:49.320Z,98565.03
2022-08-05T17:37:35.988Z,98592.66
2022-08-05T17:40:12.130Z,98542.47
2022-08-05T17:42:41.650Z,98572.72
2022-08-05T17:45:20.208Z,98556.59
2022-08-05T17:47:55.046Z,98531.28
2022-08-05T17:50:30.515Z,98535.34
2022-08-05T17:52:59.789Z,98534.91
2022-08-05T17:55:38.407Z,98561.13
2022-08-05T17:58:13.772Z,98578.38
2022-08-05T18:00:45.407Z,98605.97
2022-08-05T18:03:28.134Z,98586.31
2022-08-05T18:06:02.382Z,98610.03
2022-08-05T18:08:33.287Z,98641.75
2022-08-05T18:11:00.959Z,98563.78
2022-08-05T18:13:36.573Z,98594.25
2022-08-05T18:16:04.774Z,98621.25
2022-08-05T18:18:31.394Z,98575.91
2022-08-05T18:21:13.398Z,98560.91
2022-08-05T18:23:48.026Z,98602.84
2022-08-05T18:26:14.694Z,98612.38
2022-08-05T18:28:46.375Z,98571.72
2022-08-05T18:31:13.213Z,98606.47
2022-08-05T18:33:47.025Z,98642.03
2022-08-05T18:36:17.263Z,98540.09
2022-08-05T18:38:46.421Z,98597.88
2022-08-05T18:41:59.259Z,98582.19
2022-08-05T18:44:05.574Z,98575.06
2022-08-05T18:46:33.504Z,98596.22
2022-08-05T18:49:00.680Z,98615.06
2022-08-05T18:52:05.400Z,98607.94
2022-08-05T18:54:14.001Z,98624.88
2022-08-05T18:56:40.569Z,98617.19
2022-08-05T18:59:42.777Z,98572.78
2022-08-05T19:01:58.450Z,98633.09
2022-08-05T19:04:26.216Z,98674.09
2022-08-05T19:06:54.809Z,98641.53
2022-08-05T19:09:21.818Z,98655.22
2022-08-05T19:12:00.611Z,98661.88
2022-08-05T19:14:44.964Z,98643.84
2022-08-05T19:17:16.270Z,98718.91
2022-08-05T19:19:47.069Z,98712.00
2022-08-05T19:22:17.189Z,98671.97
2022-08-05T19:24:55.983Z,98674.06
2022-08-05T19:27:27.706Z,98676.72
2022-08-05T19:29:55.346Z,98745.31
2022-08-05T19:32:23.363Z,98685.13
2022-08-05T19:34:54.606Z,98681.97
2022-08-05T19:37:22.204Z,98701.91
2022-08-05T19:39:58.185Z,98677.81
2022-08-05T19:42:35.332Z,98765.72
2022-08-05T19:45:06.057Z,98749.31
2022-08-05T19:47:33.928Z,98757.50
2022-08-05T19:50:00.721Z,98713.78
2022-08-05T19:52:31.519Z,98693.22
2022-08-05T19:55:00.370Z,98704.28
2022-08-05T19:57:57.267Z,98761.34
2022-08-05T20:00:20.791Z,98755.56
2022-08-05T20:02:47.486Z,98737.53
2022-08-05T20:05:16.420Z,98735.09
2022-08-05T20:07:55.055Z,98777.34
2022-08-05T20:10:25.116Z,98753.03
2022-08-05T20:12:52.180Z,98731.16
2022-08-05T20:15:47.822Z,98732.09
2022-08-05T20:18:35.823Z,98786.53
2022-08-05T20:20:59.921Z,98709.53
2022-08-05T20:23:40.362Z,98777.75
2022-08-05T20:26:15.961Z,98733.72
2022-08-05T20:28:44.921Z,98765.50
2022-08-05T20:31:11.630Z,98772.22
2022-08-05T20:33:38.171Z,98812.91
2022-08-05T20:36:10.062Z,98810.16
2022-08-05T20:38:38.020Z,98754.47
2022-08-05T20:41:08.171Z,98820.44
2022-08-05T20:43:59.988Z,98701.53
2022-08-05T20:46:24.965Z,98760.66
2022-08-05T20:48:52.355Z,98781.47
2022-08-05T20:51:18.957Z,98767.09
2022-08-05T20:53:56.860Z,98731.56
2022-08-05T20:56:31.885Z,98769.59
2022-08-05T20:59:13.874Z,98745.03
2022-08-05T21:01:42.787Z,98771.69
2022-08-05T21:04:10.001Z,98788.78
2022-08-05T21:06:45.159Z,98796.38
2022-08-05T21:09:14.214Z,98769.94
2022-08-05T21:12:10.287Z,98799.28
2022-08-05T21:14:29.087Z,98850.03
2022-08-05T21:17:06.110Z,98852.97
2022-08-05T21:19:46.481Z,98853.41
2022-08-05T21:22:17.596Z,98860.06
2022-08-05T21:24:51.664Z,98792.84
2022-08-05T21:27:27.234Z,98788.69
2022-08-05T21:29:55.906Z,98773.81
2022-08-05T21:32:27.681Z,98846.28
2022-08-05T21:35:17.459Z,98823.16
2022-08-05T21:37:43.707Z,98798.28
2022-08-05T21:40:14.315Z,98831.03
2022-08-05T21:42:44.450Z,98869.03
2022-08-05T21:45:11.835Z,98825.59
2022-08-05T21:47:56.873Z,98808.88
2022-08-05T21:50:26.520Z,98830.22
2022-08-05T21:52:58.864Z,98805.00
2022-08-05T21:56:01.540Z,98822.59
2022-08-05T21:58:20.305Z,98854.78
2022-08-05T22:00:51.881Z,98813.03
2022-08-05T22:03:20.542Z,98824.28
2022-08-05T22:06:06.125Z,98827.28
2022-08-05T22:08:34.966Z,98811.41
2022-08-05T22:11:01.590Z,98840.88
2022-08-05T22:14:32.643Z,98862.97
2022-08-05T22:16:39.516Z,98891.97
2022-08-05T22:19:02.193Z,98841.47
2022-08-05T22:21:29.066Z,98867.00
2022-08-05T22:24:02.891Z,98862.00
2022-08-05T22:26:35.907Z,98905.13
2022-08-05T22:29:03.307Z,98863.66
2022-08-05T22:31:31.036Z,98858.09
2022-08-05T22:34:11.306Z,98863.03
2022-08-05T22:36:47.187Z,98872.91
2022-08-05T22:39:15.210Z,98866.34
2022-08-05T22:42:10.152Z,98863.94
2022-08-05T22:44:29.192Z,98902.56
2022-08-05T22:46:55.911Z,98884.28
2022-08-05T22:50:17.809Z,98864.31
2022-08-05T22:52:13.832Z,98894.34
2022-08-05T22:54:49.624Z,98833.84
2022-08-05T22:57:16.284Z,98827.72
2022-08-05T22:59:50.392Z,98872.44
2022-08-05T23:02:29.256Z,98864.09
2022-08-05T23:05:01.885Z,98910.53
2022-08-05T23:07:32.700Z,98858.03
2022-08-05T23:10:11.420Z,98902.19
2022-08-05T23:12:38.133Z,98893.28
2022-08-05T23:15:08.674Z,98868.56
2022-08-05T23:17:37.678Z,98906.00
2022-08-05T23:20:23.567Z,98908.03
2022-08-05T23:22:55.815Z,98909.25
2022-08-05T23:25:51.090Z,98884.31
2022-08-05T23:28:10.624Z,98922.13
2022-08-05T23:30:39.667Z,98897.56
2022-08-05T23:33:07.526Z,98965.31
2022-08-05T23:35:49.041Z,98896.91
2022-08-05T23:38:16.145Z,98935.44
2022-08-05T23:40:49.779Z,98865.84
2022-08-05T23:43:25.712Z,98957.94
2022-08-05T23:46:21.210Z,98952.19
2022-08-05T23:49:00.490Z,98983.09
2022-08-05T23:51:38.581Z,98965.25
2022-08-05T23:54:08.428Z,98896.03
2022-08-05T23:56:37.937Z,98923.78
2022-08-05T23:59:05.926Z,98997.38
